WetterOnline ( https://www.wetteronline.de )

Wetter aktuell Jicin

Aktuelles Wetter: Pec Pod Snezkou (820m)

6-stündlich | Neueste Meldungen
Ortszeit Temperatur Wetter
So, 09.08. 20:00 20.2° C leicht bewölkt
So, 09.08. 14:00 25.2° C wolkig
So, 09.08. 8:00 19.1° C leicht bewölkt
So, 09.08. 2:00 14.0° C -
Sa, 08.08. 20:00 19.4° C wolkenlos
Sa, 08.08. 14:00 26.1° C leicht bewölkt
Sa, 08.08. 8:00 18.1° C wolkenlos
Sa, 08.08. 2:00 13.8° C -
Ortszeit Temperatur Wetter
Mo, 10.08. 1:00 15.3° C -
Mo, 10.08. 0:00 16.0° C -
So, 09.08. 23:00 16.7° C -
So, 09.08. 22:00 17.3° C leicht bewölkt
So, 09.08. 21:00 18.3° C leicht bewölkt
So, 09.08. 20:00 20.2° C leicht bewölkt
Ortszeit Relative Feuchte Sichtweite
So, 09.08. 20:00 77% 20 km
So, 09.08. 14:00 50% 20 km
So, 09.08. 8:00 83% 10 km
So, 09.08. 2:00 88% 25 km
Sa, 08.08. 20:00 71% 25 km
Sa, 08.08. 14:00 31% 25 km
Sa, 08.08. 8:00 73% 10 km
Sa, 08.08. 2:00 89% 22 km
Ortszeit Relative Feuchte Sichtweite
Mo, 10.08. 1:00 90% 25 km
Mo, 10.08. 0:00 87% 25 km
So, 09.08. 23:00 85% 5.0 km
So, 09.08. 22:00 83% 10 km
So, 09.08. 21:00 82% 10 km
So, 09.08. 20:00 77% 20 km
Ortszeit Niederschlagsmenge Niederschlagsart
So, 09.08. 20:00 0.0 l/m2 in 12 Std. -
So, 09.08. 14:00 0.0 l/m2 in 6 Std. -
So, 09.08. 8:00 0.0 l/m2 in 12 Std. -
So, 09.08. 2:00 0.0 l/m2 in 6 Std. -
Sa, 08.08. 20:00 0.0 l/m2 in 12 Std. -
Sa, 08.08. 14:00 0.0 l/m2 in 6 Std. -
Sa, 08.08. 8:00 0.0 l/m2 in 12 Std. -
Sa, 08.08. 2:00 0.0 l/m2 in 6 Std. -
Ortszeit Niederschlagsmenge Niederschlagsart
Mo, 10.08. 1:00 0.0 l/m2 in 1 Std. -
Mo, 10.08. 0:00 0.0 l/m2 in 1 Std. -
So, 09.08. 23:00 0.0 l/m2 in 1 Std. -
So, 09.08. 22:00 0.0 l/m2 in 1 Std. -
So, 09.08. 21:00 0.0 l/m2 in 1 Std. -
So, 09.08. 20:00 0.0 l/m2 in 1 Std. -
Ortszeit Stärke Spitze Richtung
km/h Bft. km/h Grad Sektor
So, 09.08. 20:00 4 1 - 190° S
So, 09.08. 14:00 7 2 - 10° N
So, 09.08. 8:00 4 1 - uml. uml.
So, 09.08. 2:00 4 1 - 200° S
Sa, 08.08. 20:00 4 1 - 190° S
Sa, 08.08. 14:00 7 2 - uml. uml.
Sa, 08.08. 8:00 0 0 - - -
Sa, 08.08. 2:00 4 1 - 210° SW
Ortszeit Stärke Spitze Richtung
km/h Bft. km/h Grad Sektor
Mo, 10.08. 1:00 4 1 - 200° S
Mo, 10.08. 0:00 4 1 - - -
So, 09.08. 23:00 4 1 - uml. uml.
So, 09.08. 22:00 4 1 - 230° SW
So, 09.08. 21:00 4 1 - 200° S
So, 09.08. 20:00 4 1 - 190° S
Ortszeit Untergrenze Bedeckung Gattung
total tief tief mittel hoch
So, 09.08. 20:00 3300 m 7/8 2/8 - Ac Ci
So, 09.08. 14:00 1470 m 5/8 5/8 Cu - -
So, 09.08. 8:00 2700 m 2/8 2/8 - Ac -
So, 09.08. 2:00 - - - - - -
Sa, 08.08. 20:00 - 0/8 0/8 - - -
Sa, 08.08. 14:00 1500 m 4/8 4/8 Cu - -
Sa, 08.08. 8:00 - 0/8 0/8 - - -
Sa, 08.08. 2:00 - - - - - -
Ortszeit Bedeckungsgrad in Achtel und Wolkenuntergrenze
Mo, 10.08. 1:00 -
Mo, 10.08. 0:00 2(5100m)
So, 09.08. 23:00 3(4200m) 6(5400m)
So, 09.08. 22:00 7(6600m)
So, 09.08. 21:00 7(8400m)
So, 09.08. 20:00 2(3300m) 7(9000m)
Ortszeit Stationsdruck (hPa) Tendenz (hPa in 3 Std.)
So, 09.08. 20:00 926 0,0
So, 09.08. 14:00 927 - 0,7
So, 09.08. 8:00 928 + 0,1
So, 09.08. 2:00 928 - 0,4
Sa, 08.08. 20:00 929 0,0
Sa, 08.08. 14:00 929 - 0,7
Sa, 08.08. 8:00 930 + 0,2
Sa, 08.08. 2:00 930 0,0
Ortszeit Stationsdruck (hPa) Tendenz (hPa in 3 Std.)
Mo, 10.08. 1:00 926 0,0
Mo, 10.08. 0:00 926 0,0
So, 09.08. 23:00 926 + 0,1
So, 09.08. 22:00 926 + 0,5
So, 09.08. 21:00 926 + 0,3
So, 09.08. 20:00 926 0,0
Ortszeit Schneehöhe (cm)
So, 09.08. 20:00 -
So, 09.08. 14:00 -
So, 09.08. 8:00 -
So, 09.08. 2:00 -
Sa, 08.08. 20:00 -
Sa, 08.08. 14:00 -
Sa, 08.08. 8:00 -
Sa, 08.08. 2:00 -
Ortszeit Schneehöhe (cm)
Mo, 10.08. 1:00 -
Mo, 10.08. 0:00 -
So, 09.08. 23:00 -
So, 09.08. 22:00 -
So, 09.08. 21:00 -
So, 09.08. 20:00 -
Link zu dieser Seite / Seite empfehlen

Das Wetter in ...